createdAt,value
2022-10-12T00:00:50.005Z,20.27
2022-10-12T00:03:37.066Z,20.73
2022-10-12T00:06:09.495Z,19.58
2022-10-12T00:08:39.848Z,19.85
2022-10-12T00:11:13.091Z,22.30
2022-10-12T00:13:43.294Z,47.45
2022-10-12T00:16:15.541Z,30.58
2022-10-12T00:18:56.075Z,33.22
2022-10-12T00:21:26.972Z,26.25
2022-10-12T00:24:01.222Z,22.65
2022-10-12T00:26:37.486Z,29.42
2022-10-12T00:29:07.549Z,26.85
2022-10-12T00:31:39.605Z,22.25
2022-10-12T00:34:14.258Z,20.48
2022-10-12T00:36:43.786Z,24.88
2022-10-12T00:39:12.091Z,19.83
2022-10-12T00:41:47.272Z,20.75
2022-10-12T00:44:54.871Z,29.20
2022-10-12T00:47:29.471Z,23.48
2022-10-12T00:50:20.482Z,20.80
2022-10-12T00:53:18.336Z,33.47
2022-10-12T00:56:04.181Z,21.50
2022-10-12T00:58:37.427Z,65.00
2022-10-12T01:01:08.417Z,34.55
2022-10-12T01:03:46.460Z,23.40
2022-10-12T01:06:17.871Z,27.77
2022-10-12T01:08:47.121Z,59.92
2022-10-12T01:11:15.964Z,41.78
2022-10-12T01:13:46.411Z,78.05
2022-10-12T01:16:36.891Z,54.45
2022-10-12T01:19:54.976Z,25.83
2022-10-12T01:22:46.079Z,32.47
2022-10-12T01:25:38.434Z,24.55
2022-10-12T01:28:33.399Z,27.88
2022-10-12T01:31:15.317Z,29.95
2022-10-12T01:33:50.979Z,31.70
2022-10-12T01:36:37.789Z,31.45
2022-10-12T01:39:59.288Z,52.50
2022-10-12T01:42:38.174Z,301.52
2022-10-12T01:45:14.637Z,147.27
2022-10-12T01:47:52.963Z,67.40
2022-10-12T01:50:35.359Z,52.30
2022-10-12T01:53:26.360Z,31.65
2022-10-12T01:56:18.806Z,29.70
2022-10-12T01:59:27.754Z,32.33
2022-10-12T02:02:03.020Z,29.58
2022-10-12T02:04:35.015Z,56.33
2022-10-12T02:07:17.935Z,58.50
2022-10-12T02:09:49.760Z,51.42
2022-10-12T02:12:26.863Z,37.30
2022-10-12T02:15:06.864Z,27.77
2022-10-12T02:17:41.905Z,29.60
2022-10-12T02:20:18.937Z,34.22
2022-10-12T02:23:19.245Z,35.22
2022-10-12T02:25:51.839Z,32.83
2022-10-12T02:28:24.995Z,28.05
2022-10-12T02:31:19.840Z,32.85
2022-10-12T02:34:18.927Z,29.40
2022-10-12T02:37:18.457Z,89.53
2022-10-12T02:39:58.407Z,46.35
2022-10-12T02:43:08.301Z,40.42
2022-10-12T02:45:29.530Z,39.45
2022-10-12T02:48:04.241Z,33.25
2022-10-12T02:50:34.355Z,27.25
2022-10-12T02:53:15.765Z,31.48
2022-10-12T02:55:53.229Z,32.20
2022-10-12T02:58:24.611Z,26.40
2022-10-12T03:00:57.140Z,28.40
2022-10-12T03:03:30.434Z,29.55
2022-10-12T03:06:00.101Z,24.60
2022-10-12T03:08:33.638Z,27.35
2022-10-12T03:11:04.795Z,29.45
2022-10-12T03:13:34.545Z,27.50
2022-10-12T03:16:08.919Z,27.75
2022-10-12T03:18:41.607Z,29.75
2022-10-12T03:21:14.816Z,34.15
2022-10-12T03:23:45.473Z,39.70
2022-10-12T03:26:14.198Z,46.72
2022-10-12T03:28:43.143Z,38.80
2022-10-12T03:31:13.501Z,45.38
2022-10-12T03:33:45.111Z,35.15
2022-10-12T03:36:17.262Z,39.13
2022-10-12T03:38:49.364Z,34.35
2022-10-12T03:41:23.740Z,30.23
2022-10-12T03:44:00.970Z,33.05
2022-10-12T03:46:34.657Z,31.25
2022-10-12T03:49:04.588Z,31.88
2022-10-12T03:51:37.439Z,30.50
2022-10-12T03:54:07.850Z,29.90
2022-10-12T03:56:37.663Z,31.70
2022-10-12T03:59:06.309Z,25.80
2022-10-12T04:01:53.506Z,33.95
2022-10-12T04:04:32.839Z,30.10
2022-10-12T04:07:10.823Z,26.33
2022-10-12T04:09:43.257Z,24.33
2022-10-12T04:12:12.873Z,26.80
2022-10-12T04:14:41.155Z,25.58
2022-10-12T04:17:16.316Z,41.25
2022-10-12T04:19:47.844Z,39.00
2022-10-12T04:22:25.216Z,37.92
2022-10-12T04:24:55.828Z,30.02
2022-10-12T04:27:33.192Z,27.50
2022-10-12T04:30:01.772Z,26.20
2022-10-12T04:32:39.050Z,30.60
2022-10-12T04:35:09.458Z,25.27
2022-10-12T04:37:44.060Z,39.80
2022-10-12T04:40:15.095Z,33.92
2022-10-12T04:42:45.036Z,27.02
2022-10-12T04:45:16.723Z,33.28
2022-10-12T04:47:46.413Z,35.67
2022-10-12T04:50:16.410Z,42.72
2022-10-12T04:52:44.946Z,37.08
2022-10-12T04:55:16.654Z,44.45
2022-10-12T04:57:45.996Z,48.47
2022-10-12T05:00:22.331Z,112.90
2022-10-12T05:02:53.111Z,90.78
2022-10-12T05:05:23.354Z,71.05
2022-10-12T05:08:22.476Z,50.97
2022-10-12T05:10:52.841Z,61.60
2022-10-12T05:13:24.243Z,55.70
2022-10-12T05:16:03.721Z,44.85
2022-10-12T05:18:33.050Z,51.67
2022-10-12T05:21:04.262Z,36.72
2022-10-12T05:23:33.934Z,43.47
2022-10-12T05:26:04.509Z,44.58
2022-10-12T05:28:34.910Z,43.17
2022-10-12T05:31:07.334Z,56.90
2022-10-12T05:33:35.463Z,48.78
2022-10-12T05:36:07.245Z,45.65
2022-10-12T05:38:38.611Z,50.25
2022-10-12T05:41:07.332Z,83.38
2022-10-12T05:43:36.999Z,57.78
2022-10-12T05:46:10.016Z,54.97
2022-10-12T05:48:42.667Z,58.70
2022-10-12T05:51:15.360Z,62.88
2022-10-12T05:53:45.212Z,49.10
2022-10-12T05:56:13.777Z,49.53
2022-10-12T05:58:47.388Z,37.60
2022-10-12T06:01:16.960Z,39.90
2022-10-12T06:03:47.188Z,60.25
2022-10-12T06:06:16.377Z,66.95
2022-10-12T06:08:45.968Z,30.17
2022-10-12T06:11:15.098Z,23.27
2022-10-12T06:13:45.474Z,25.25
2022-10-12T06:16:16.875Z,23.15
2022-10-12T06:18:48.279Z,22.02
2022-10-12T06:21:33.854Z,21.88
2022-10-12T06:24:02.812Z,42.50
2022-10-12T06:26:34.821Z,30.27
2022-10-12T06:29:04.268Z,27.80
2022-10-12T06:31:35.039Z,20.67
2022-10-12T06:34:04.113Z,21.85
2022-10-12T06:36:36.675Z,19.25
2022-10-12T06:39:05.869Z,14.73
2022-10-12T06:41:41.056Z,15.90
2022-10-12T06:44:10.510Z,16.58
2022-10-12T06:46:41.586Z,15.15
2022-10-12T06:49:10.680Z,19.00
2022-10-12T06:51:43.294Z,16.40
2022-10-12T06:54:11.691Z,16.08
2022-10-12T06:56:41.819Z,15.63
2022-10-12T06:59:13.339Z,17.10
2022-10-12T07:01:42.812Z,16.75
2022-10-12T07:04:13.435Z,15.13
2022-10-12T07:06:42.947Z,15.57
2022-10-12T07:09:11.351Z,14.32
2022-10-12T07:11:40.407Z,14.07
2022-10-12T07:14:09.504Z,13.05
2022-10-12T07:16:40.420Z,14.93
2022-10-12T07:19:09.815Z,13.15
2022-10-12T07:21:40.971Z,10.88
2022-10-12T07:24:13.955Z,18.40
2022-10-12T07:26:44.927Z,11.80
2022-10-12T07:29:15.148Z,14.35
2022-10-12T07:31:52.183Z,13.90
2022-10-12T07:34:21.239Z,11.20
2022-10-12T07:36:59.116Z,12.40
2022-10-12T07:39:29.284Z,11.93
2022-10-12T07:41:59.831Z,12.13
2022-10-12T07:44:33.272Z,16.58
2022-10-12T07:47:04.616Z,16.55
2022-10-12T07:49:37.522Z,16.50
2022-10-12T07:52:14.209Z,10.63
2022-10-12T07:55:02.697Z,11.70
2022-10-12T08:00:53.331Z,11.63
2022-10-12T08:03:24.140Z,11.52
2022-10-12T08:05:54.464Z,10.07
2022-10-12T08:08:26.614Z,8.40
2022-10-12T08:10:57.256Z,11.48
2022-10-12T08:13:28.443Z,8.50
2022-10-12T08:16:00.306Z,8.18
2022-10-12T08:18:29.545Z,9.23
2022-10-12T08:20:58.760Z,9.10
2022-10-12T08:23:29.293Z,10.13
2022-10-12T08:25:58.866Z,8.93
2022-10-12T08:28:29.763Z,20.17
2022-10-12T08:31:00.914Z,14.25
2022-10-12T08:33:36.926Z,9.93
2022-10-12T08:36:07.482Z,9.68
2022-10-12T08:38:43.382Z,10.90
2022-10-12T08:41:31.019Z,30.67
2022-10-12T08:44:09.837Z,11.00
2022-10-12T08:46:38.800Z,8.73
2022-10-12T08:49:11.979Z,9.00
2022-10-12T08:51:52.267Z,7.93
2022-10-12T08:54:24.432Z,11.70
2022-10-12T08:57:00.728Z,12.40
2022-10-12T08:59:39.085Z,9.73
2022-10-12T09:02:27.536Z,10.85
2022-10-12T09:05:15.415Z,7.57
2022-10-12T09:07:52.435Z,10.32
2022-10-12T09:10:51.027Z,9.27
2022-10-12T09:13:38.341Z,7.43
2022-10-12T09:16:30.398Z,9.30
2022-10-12T09:19:40.267Z,7.37
2022-10-12T09:22:21.449Z,6.75
2022-10-12T09:24:53.057Z,7.32
2022-10-12T09:27:22.646Z,8.43
2022-10-12T09:29:59.077Z,8.35
2022-10-12T09:32:38.409Z,11.75
2022-10-12T09:35:11.482Z,10.02
2022-10-12T09:37:41.508Z,10.68
2022-10-12T09:40:24.759Z,6.28
2022-10-12T09:42:56.002Z,8.85
2022-10-12T09:45:29.194Z,10.48
2022-10-12T09:48:24.796Z,7.95
2022-10-12T09:51:00.213Z,10.70
2022-10-12T09:53:41.827Z,9.25
2022-10-12T09:56:29.842Z,5.40
2022-10-12T09:59:05.512Z,6.50
2022-10-12T10:01:44.351Z,5.63
2022-10-12T10:04:28.040Z,6.55
2022-10-12T10:07:13.837Z,5.78
2022-10-12T10:09:45.101Z,8.68
2022-10-12T10:12:28.536Z,5.95
2022-10-12T10:15:01.050Z,6.22
2022-10-12T10:17:32.812Z,6.38
2022-10-12T10:20:08.999Z,11.35
2022-10-12T10:25:24.446Z,86.82
2022-10-12T10:28:15.640Z,13.73
2022-10-12T10:30:48.749Z,8.13
2022-10-12T10:33:19.339Z,10.52
2022-10-12T10:36:10.815Z,7.32
2022-10-12T10:38:58.356Z,6.32
2022-10-12T10:41:32.969Z,7.03
2022-10-12T10:44:01.523Z,7.43
2022-10-12T10:46:35.495Z,8.80
2022-10-12T10:49:09.564Z,11.90
2022-10-12T10:51:45.503Z,8.00
2022-10-12T10:54:36.481Z,11.23
2022-10-12T10:57:07.672Z,9.40
2022-10-12T10:59:41.797Z,6.13
2022-10-12T11:02:34.475Z,4.80
2022-10-12T11:05:12.836Z,6.53
2022-10-12T11:07:56.108Z,5.05
2022-10-12T11:10:36.414Z,4.43
2022-10-12T11:13:32.809Z,8.85
2022-10-12T11:19:21.558Z,6.18
2022-10-12T11:21:59.829Z,6.43
2022-10-12T11:24:36.084Z,7.20
2022-10-12T11:27:14.856Z,6.20
2022-10-12T11:29:54.155Z,5.63
2022-10-12T11:32:38.994Z,5.95
2022-10-12T11:35:22.333Z,7.47
2022-10-12T11:38:15.352Z,9.00
2022-10-12T11:41:05.501Z,9.25
2022-10-12T11:43:42.568Z,9.30
2022-10-12T11:46:35.429Z,6.63
2022-10-12T11:49:28.800Z,7.18
2022-10-12T11:52:03.017Z,7.43
2022-10-12T11:54:56.994Z,5.70
2022-10-12T11:57:47.911Z,7.50
2022-10-12T12:00:34.621Z,5.85
2022-10-12T12:03:27.006Z,28.98
2022-10-12T12:05:55.927Z,7.40
2022-10-12T12:08:44.405Z,5.70
2022-10-12T12:11:24.820Z,5.63
2022-10-12T12:14:23.176Z,6.05
2022-10-12T12:17:13.636Z,5.60
2022-10-12T12:19:45.088Z,4.32
2022-10-12T12:22:14.125Z,8.75
2022-10-12T12:24:53.622Z,8.18
2022-10-12T12:27:41.953Z,5.88
2022-10-12T12:30:25.755Z,6.20
2022-10-12T12:33:25.372Z,12.27
2022-10-12T12:36:05.333Z,6.28
2022-10-12T12:38:39.497Z,48.78
2022-10-12T12:41:15.126Z,59.40
2022-10-12T12:44:01.153Z,38.65
2022-10-12T12:46:58.723Z,59.33
2022-10-12T12:49:45.345Z,53.30
2022-10-12T12:52:33.315Z,76.55
2022-10-12T12:55:45.619Z,20.45
2022-10-12T12:58:49.793Z,16.77
2022-10-12T13:01:53.372Z,9.73
2022-10-12T13:04:33.134Z,9.23
2022-10-12T13:07:28.808Z,9.73
2022-10-12T13:10:05.619Z,18.98
2022-10-12T13:17:31.438Z,21.40
2022-10-12T13:20:27.960Z,22.45
2022-10-12T13:23:15.393Z,10.65
2022-10-12T13:25:52.550Z,8.02
2022-10-12T13:28:38.736Z,8.38
2022-10-12T13:31:43.918Z,7.72
2022-10-12T13:34:24.326Z,6.68
2022-10-12T13:37:12.056Z,11.60
2022-10-12T13:39:45.897Z,17.55
2022-10-12T13:42:29.338Z,23.83
2022-10-12T13:45:24.780Z,26.20
2022-10-12T13:47:53.159Z,9.25
2022-10-12T13:50:26.644Z,7.50
2022-10-12T13:52:57.566Z,5.10
2022-10-12T13:55:27.777Z,15.32
2022-10-12T13:58:00.699Z,9.80
2022-10-12T14:00:36.321Z,14.97
2022-10-12T14:03:12.789Z,9.02
2022-10-12T14:06:02.148Z,9.88
2022-10-12T14:08:33.855Z,8.05
2022-10-12T14:13:57.405Z,14.50
2022-10-12T14:19:42.871Z,13.13
2022-10-12T14:25:32.415Z,8.00
2022-10-12T14:34:52.168Z,28.13
2022-10-12T14:37:45.454Z,20.67
2022-10-12T14:41:00.812Z,24.13
2022-10-12T14:46:28.308Z,36.95
2022-10-12T14:49:16.861Z,35.33
2022-10-12T14:51:47.679Z,25.58
2022-10-12T14:54:41.461Z,27.60
2022-10-12T14:57:26.314Z,48.92
2022-10-12T15:00:00.251Z,52.30
2022-10-12T15:02:43.673Z,83.43
2022-10-12T15:05:32.265Z,117.93
2022-10-12T15:08:22.303Z,78.57
2022-10-12T15:10:53.409Z,69.88
2022-10-12T15:13:23.412Z,65.25
2022-10-12T15:15:55.200Z,60.67
2022-10-12T15:18:23.853Z,66.97
2022-10-12T15:20:57.475Z,63.22
2022-10-12T15:23:33.663Z,79.28
2022-10-12T15:26:14.386Z,101.00
2022-10-12T15:32:15.943Z,107.22
2022-10-12T15:35:01.370Z,104.53
2022-10-12T15:37:32.639Z,126.45
2022-10-12T15:40:20.066Z,113.97
2022-10-12T15:42:53.852Z,83.57
2022-10-12T15:45:36.304Z,53.00
2022-10-12T15:48:06.177Z,168.63
2022-10-12T15:50:38.776Z,126.15
2022-10-12T15:53:14.028Z,137.02
2022-10-12T15:55:46.272Z,165.98
2022-10-12T15:58:23.260Z,166.35
2022-10-12T16:03:26.093Z,144.90
2022-10-12T16:15:55.655Z,97.05
2022-10-12T16:18:26.798Z,94.13
2022-10-12T16:21:04.156Z,129.30
2022-10-12T16:23:39.821Z,129.73
2022-10-12T16:26:12.863Z,158.52
2022-10-12T16:28:45.765Z,108.30
2022-10-12T16:31:21.932Z,108.25
2022-10-12T16:33:53.342Z,231.25
2022-10-12T16:36:29.677Z,226.05
2022-10-12T16:39:07.025Z,277.95
2022-10-12T16:41:37.745Z,410.52
2022-10-12T16:44:18.151Z,198.63
2022-10-12T16:47:00.415Z,169.70
2022-10-12T16:49:31.375Z,97.38
2022-10-12T16:52:08.537Z,79.63
2022-10-12T16:54:46.561Z,77.47
2022-10-12T16:57:58.678Z,69.30
2022-10-12T17:00:50.230Z,65.40
2022-10-12T17:03:21.107Z,85.67
2022-10-12T17:06:00.592Z,102.43
2022-10-12T17:08:39.930Z,101.93
2022-10-12T17:11:11.747Z,91.68
2022-10-12T17:13:49.295Z,85.97
2022-10-12T17:16:37.328Z,70.00
2022-10-12T17:19:21.597Z,61.00
2022-10-12T17:21:50.244Z,59.60
2022-10-12T17:24:21.875Z,59.67
2022-10-12T17:26:52.523Z,64.57
2022-10-12T17:29:21.916Z,78.95
2022-10-12T17:31:52.741Z,64.05
2022-10-12T17:34:24.421Z,62.70
2022-10-12T17:36:56.620Z,59.70
2022-10-12T17:42:22.448Z,63.38
2022-10-12T17:48:24.277Z,62.17
2022-10-12T17:50:55.609Z,86.35
2022-10-12T17:53:24.672Z,127.50
2022-10-12T17:56:05.747Z,249.75
2022-10-12T17:58:36.902Z,108.38
2022-10-12T18:01:08.263Z,161.77
2022-10-12T18:03:51.862Z,273.05
2022-10-12T18:06:46.715Z,285.85
2022-10-12T18:09:17.439Z,260.38
2022-10-12T18:11:51.631Z,226.50
2022-10-12T18:14:23.694Z,191.50
2022-10-12T18:16:55.889Z,152.18
2022-10-12T18:19:34.137Z,118.25
2022-10-12T18:22:05.994Z,102.93
2022-10-12T18:24:34.847Z,186.45
2022-10-12T18:27:12.063Z,166.38
2022-10-12T18:29:42.319Z,104.32
2022-10-12T18:32:16.172Z,125.00
2022-10-12T18:34:44.871Z,142.57
2022-10-12T18:37:22.589Z,152.48
2022-10-12T18:39:53.766Z,128.63
2022-10-12T18:42:25.369Z,179.30
2022-10-12T18:44:59.883Z,278.70
2022-10-12T18:47:29.375Z,257.70
2022-10-12T18:49:58.509Z,134.35
2022-10-12T18:52:27.428Z,193.25
2022-10-12T18:54:58.384Z,221.68
2022-10-12T18:57:32.172Z,226.75
2022-10-12T19:00:02.482Z,206.18
2022-10-12T19:02:34.572Z,167.77
2022-10-12T19:05:12.590Z,158.13
2022-10-12T19:07:41.274Z,168.50
2022-10-12T19:10:11.761Z,135.75
2022-10-12T19:12:45.750Z,130.95
2022-10-12T19:15:18.499Z,112.10
2022-10-12T19:17:52.485Z,125.38
2022-10-12T19:20:26.783Z,105.38
2022-10-12T19:22:59.184Z,84.75
2022-10-12T19:25:28.336Z,81.45
2022-10-12T19:28:04.233Z,80.57
2022-10-12T19:30:33.970Z,69.88
2022-10-12T19:33:04.180Z,69.45
2022-10-12T19:35:39.260Z,70.00
2022-10-12T19:40:40.612Z,70.75
2022-10-12T19:43:11.439Z,71.05
2022-10-12T19:45:41.861Z,66.13
2022-10-12T19:48:10.400Z,66.53
2022-10-12T19:50:49.046Z,73.07
2022-10-12T19:55:53.076Z,75.57
2022-10-12T19:59:08.592Z,77.32
2022-10-12T20:01:39.307Z,77.53
2022-10-12T20:04:15.225Z,81.32
2022-10-12T20:06:46.766Z,77.57
2022-10-12T20:09:15.723Z,75.78
2022-10-12T20:11:45.493Z,81.05
2022-10-12T20:14:15.493Z,77.10
2022-10-12T20:16:45.935Z,68.47
2022-10-12T20:19:24.689Z,64.40
2022-10-12T20:21:59.228Z,60.90
2022-10-12T20:24:39.415Z,57.97
2022-10-12T20:27:08.951Z,427.00
2022-10-12T20:29:46.140Z,134.10
2022-10-12T20:32:18.572Z,135.00
2022-10-12T20:34:52.825Z,132.38
2022-10-12T20:37:40.083Z,87.35
2022-10-12T20:40:12.930Z,72.68
2022-10-12T20:42:46.505Z,76.97
2022-10-12T20:45:16.678Z,78.65
2022-10-12T20:47:47.171Z,63.03
2022-10-12T20:50:17.899Z,66.45
2022-10-12T20:52:48.315Z,60.95
2022-10-12T20:55:19.455Z,60.40
2022-10-12T20:58:13.894Z,55.72
2022-10-12T21:00:47.978Z,49.30
2022-10-12T21:03:16.451Z,45.47
2022-10-12T21:05:51.892Z,52.40
2022-10-12T21:08:21.532Z,70.72
2022-10-12T21:10:51.732Z,69.97
2022-10-12T21:13:30.689Z,178.82
2022-10-12T21:16:37.955Z,81.20
2022-10-12T21:19:11.669Z,58.58
2022-10-12T21:21:43.902Z,65.15
2022-10-12T21:24:20.695Z,63.45
2022-10-12T21:26:52.457Z,67.50
2022-10-12T21:29:23.060Z,111.18
2022-10-12T21:31:57.465Z,176.63
2022-10-12T21:34:28.382Z,174.40
2022-10-12T21:36:57.252Z,109.85
2022-10-12T21:39:26.020Z,66.75
2022-10-12T21:41:54.940Z,84.47
2022-10-12T21:44:27.122Z,86.57
2022-10-12T21:46:56.362Z,97.07
2022-10-12T21:49:31.714Z,107.35
2022-10-12T21:52:06.455Z,86.32
2022-10-12T21:54:37.696Z,93.68
2022-10-12T21:57:06.726Z,92.57
2022-10-12T21:59:36.751Z,98.28
2022-10-12T22:02:07.213Z,89.72
2022-10-12T22:04:40.279Z,153.23
2022-10-12T22:07:10.618Z,128.07
2022-10-12T22:09:43.193Z,172.32
2022-10-12T22:12:13.300Z,145.20
2022-10-12T22:14:41.673Z,136.10
2022-10-12T22:17:18.876Z,107.95
2022-10-12T22:19:49.731Z,42.13
2022-10-12T22:22:18.362Z,58.25
2022-10-12T22:24:47.449Z,89.18
2022-10-12T22:27:17.473Z,97.18
2022-10-12T22:29:47.133Z,96.30
2022-10-12T22:32:16.404Z,88.20
2022-10-12T22:34:46.004Z,67.65
2022-10-12T22:37:15.415Z,59.60
2022-10-12T22:39:44.888Z,58.00
2022-10-12T22:42:15.853Z,45.50
2022-10-12T22:44:48.439Z,49.65
2022-10-12T22:47:18.560Z,37.30
2022-10-12T22:49:49.753Z,36.58
2022-10-12T22:52:24.484Z,44.88
2022-10-12T22:55:03.074Z,32.33
2022-10-12T22:57:40.778Z,30.85
2022-10-12T23:00:10.503Z,30.67
2022-10-12T23:02:42.007Z,24.27
2022-10-12T23:05:13.650Z,27.90
2022-10-12T23:07:44.092Z,26.20
2022-10-12T23:10:21.478Z,26.92
2022-10-12T23:12:55.122Z,29.45
2022-10-12T23:15:25.396Z,38.13
2022-10-12T23:17:55.239Z,39.80
2022-10-12T23:20:27.208Z,23.38
2022-10-12T23:23:00.472Z,25.10
2022-10-12T23:25:33.808Z,24.58
2022-10-12T23:28:03.174Z,27.17
2022-10-12T23:30:39.601Z,21.50
2022-10-12T23:33:10.360Z,33.38
2022-10-12T23:35:42.132Z,34.67
2022-10-12T23:38:11.865Z,33.58
2022-10-12T23:40:43.312Z,39.55
2022-10-12T23:43:15.627Z,33.17
2022-10-12T23:45:45.144Z,32.20
2022-10-12T23:48:18.352Z,36.17
2022-10-12T23:50:49.147Z,33.28
2022-10-12T23:53:19.328Z,42.25
2022-10-12T23:55:55.032Z,32.75
2022-10-12T23:58:23.778Z,30.92
